Time;durP1;ratioP1;P1;durP2;ratioP2;P2;SDS_P1;SDS_P2;PMS_P1;PMS_P2;Temp;Humidity;BMP_temperature;BMP_pressure;BME280_temperature;BME280_humidity;BME280_pressure;Samples;Min_cycle;Max_cycle;Signal;HPM_P1;HPM_P2
2021/04/30 00:01:02;;;;;;;8.93;5.83;;;;;;;6.36;71.51;95720.88;5050509;28;20040;-77
2021/04/30 00:03:28;;;;;;;9.87;6.63;;;;;;;6.21;71.93;95712.69;5057376;28;20108;-77
2021/04/30 00:05:54;;;;;;;10.47;6.90;;;;;;;6.21;71.65;95710.09;5054592;28;20036;-77
2021/04/30 00:08:22;;;;;;;10.37;7.27;;;;;;;6.03;72.37;95709.19;5061521;28;20043;-77
2021/04/30 00:10:47;;;;;;;13.73;7.50;;;;;;;6.08;72.29;95714.81;5052755;28;20028;-77
2021/04/30 00:13:13;;;;;;;8.63;6.10;;;;;;;6.08;71.64;95712.22;5051800;28;20070;-77
2021/04/30 00:15:39;;;;;;;11.00;7.20;;;;;;;5.99;72.55;95713.06;5068371;28;20547;-76
2021/04/30 00:18:05;;;;;;;10.27;6.83;;;;;;;5.88;72.52;95709.66;5063882;28;20090;-77
2021/04/30 00:20:39;;;;;;;11.47;7.33;;;;;;;5.90;73.34;95707.72;5057966;28;20633;-77
2021/04/30 00:23:12;;;;;;;11.57;7.32;;;;;;;5.80;72.83;95708.69;5064115;28;20144;-77
2021/04/30 00:25:41;;;;;;;14.82;8.93;;;;;;;5.65;74.33;95706.56;5060318;28;20043;-78
2021/04/30 00:28:06;;;;;;;10.57;7.93;;;;;;;5.62;74.22;95717.28;5053307;28;20108;-77
2021/04/30 00:30:33;;;;;;;12.13;7.40;;;;;;;5.65;74.66;95717.00;5050304;28;20108;-77
2021/04/30 00:32:59;;;;;;;9.60;6.40;;;;;;;5.62;74.91;95716.47;5068341;28;20021;-77
2021/04/30 00:35:25;;;;;;;11.90;5.93;;;;;;;5.65;73.90;95710.97;5059930;28;20505;-78
2021/04/30 00:37:51;;;;;;;10.73;7.27;;;;;;;5.51;75.07;95724.44;5057979;28;20033;-76
2021/04/30 00:40:17;;;;;;;11.13;7.67;;;;;;;5.58;73.91;95717.72;5061260;28;20537;-77
2021/04/30 00:42:42;;;;;;;10.40;7.73;;;;;;;5.62;74.27;95712.06;5072222;28;20397;-78
2021/04/30 00:45:16;;;;;;;12.50;7.97;;;;;;;5.52;74.58;95715.66;5072362;28;20035;-76
2021/04/30 00:47:41;;;;;;;14.27;9.25;;;;;;;5.59;74.66;95714.94;5062547;28;20040;-77
2021/04/30 00:50:12;;;;;;;15.03;10.30;;;;;;;5.64;74.57;95717.16;5054973;28;20032;-77
2021/04/30 00:52:38;;;;;;;12.47;7.83;;;;;;;5.58;75.10;95709.88;5063652;28;20044;-77
2021/04/30 00:55:12;;;;;;;13.73;9.23;;;;;;;5.70;74.51;95703.53;5051859;28;20394;-77
2021/04/30 00:57:40;;;;;;;12.70;8.27;;;;;;;5.74;74.78;95709.28;5058466;28;20032;-77
2021/04/30 01:00:09;;;;;;;11.07;7.30;;;;;;;5.75;74.52;95713.53;5068397;28;20063;-77
2021/04/30 01:02:36;;;;;;;10.70;7.27;;;;;;;5.93;74.19;95708.41;5058637;28;20039;-77
2021/04/30 01:05:04;;;;;;;13.20;9.63;;;;;;;5.91;74.21;95705.94;5050554;28;20023;-75
2021/04/30 01:07:29;;;;;;;13.07;9.57;;;;;;;5.78;74.22;95701.03;5051217;28;20032;-77
2021/04/30 01:09:55;;;;;;;11.00;7.23;;;;;;;5.84;73.94;95705.69;5052314;28;20021;-77
2021/04/30 01:12:22;;;;;;;16.70;11.47;;;;;;;5.90;73.67;95699.91;5062864;28;20032;-77
2021/04/30 01:14:48;;;;;;;16.73;11.50;;;;;;;5.98;73.54;95706.22;5053896;28;20476;-77
2021/04/30 01:17:14;;;;;;;15.27;11.20;;;;;;;5.97;73.61;95709.78;5053463;28;20036;-77
2021/04/30 01:19:39;;;;;;;14.97;10.03;;;;;;;5.72;75.47;95701.59;5049860;28;20033;-78
2021/04/30 01:22:05;;;;;;;9.13;6.53;;;;;;;5.56;76.26;95702.19;5052622;28;20032;-76
2021/04/30 01:24:31;;;;;;;10.90;6.60;;;;;;;5.49;76.74;95702.91;5058447;28;20518;-75
2021/04/30 01:26:57;;;;;;;10.63;7.83;;;;;;;5.45;76.76;95710.19;5077402;28;20123;-76
2021/04/30 01:29:23;;;;;;;10.87;6.70;;;;;;;5.61;75.54;95704.38;5058244;28;20052;-76
2021/04/30 01:31:49;;;;;;;10.70;7.10;;;;;;;5.65;74.89;95713.56;5052003;28;20189;-78
2021/04/30 01:34:15;;;;;;;12.57;7.87;;;;;;;5.72;73.97;95699.00;5059418;28;20039;-77
2021/04/30 01:36:42;;;;;;;13.67;9.03;;;;;;;5.78;74.54;95708.84;5046892;28;20037;-77
2021/04/30 01:39:12;;;;;;;12.70;8.67;;;;;;;5.88;72.95;95720.09;5081470;28;20033;-76
2021/04/30 01:41:38;;;;;;;11.77;7.90;;;;;;;5.94;72.91;95718.72;5064726;28;20037;-76
2021/04/30 01:44:13;;;;;;;12.53;7.60;;;;;;;5.99;73.21;95719.09;5050732;28;20024;-77
2021/04/30 01:46:40;;;;;;;12.50;7.60;;;;;;;5.97;72.69;95738.47;5050956;28;20025;-76
2021/04/30 01:49:07;;;;;;;10.20;7.33;;;;;;;5.99;73.18;95732.16;5060248;28;20021;-77
2021/04/30 01:51:35;;;;;;;11.57;7.77;;;;;;;5.91;73.00;95730.25;5050542;28;20429;-78
2021/04/30 01:54:04;;;;;;;12.40;8.30;;;;;;;5.89;73.49;95707.84;5067613;28;20028;-76
2021/04/30 01:56:31;;;;;;;14.23;9.37;;;;;;;5.98;72.59;95721.88;5066421;28;20056;-76
2021/04/30 01:58:57;;;;;;;16.27;10.53;;;;;;;6.07;72.32;95728.81;5068218;28;20048;-76
2021/04/30 02:01:22;;;;;;;11.43;8.07;;;;;;;5.95;71.86;95728.19;5057580;28;20089;-77
2021/04/30 02:03:48;;;;;;;11.53;8.40;;;;;;;5.80;72.43;95730.44;5061060;28;20086;-78
2021/04/30 02:06:14;;;;;;;9.30;6.87;;;;;;;5.54;74.04;95732.00;5058674;28;20486;-77
2021/04/30 02:08:40;;;;;;;15.20;8.67;;;;;;;5.63;73.66;95746.78;5050398;28;20086;-77
2021/04/30 02:11:06;;;;;;;11.77;8.60;;;;;;;5.85;72.78;95743.84;5087084;28;20592;-78
2021/04/30 02:13:32;;;;;;;12.03;8.00;;;;;;;5.93;72.59;95750.19;5064260;28;20040;-77
2021/04/30 02:15:58;;;;;;;12.30;8.40;;;;;;;6.04;71.92;95744.81;5053837;28;20576;-76
2021/04/30 02:18:24;;;;;;;11.83;7.97;;;;;;;5.99;71.87;95739.16;5051181;28;20062;-76
2021/04/30 02:20:51;;;;;;;11.33;7.83;;;;;;;6.06;71.93;95742.84;5054634;28;20475;-77
2021/04/30 02:23:17;;;;;;;10.77;8.03;;;;;;;5.99;72.30;95741.78;5061398;28;20035;-77
2021/04/30 02:25:43;;;;;;;11.70;8.17;;;;;;;6.05;72.23;95739.41;5060965;28;20032;-77
2021/04/30 02:28:09;;;;;;;11.13;8.03;;;;;;;6.05;72.44;95746.44;5052152;28;20999;-77
2021/04/30 02:30:38;;;;;;;10.80;8.17;;;;;;;6.08;72.03;95743.53;5048295;28;20497;-76
2021/04/30 02:33:05;;;;;;;11.13;7.77;;;;;;;6.02;72.26;95738.88;5054443;28;20505;-76
2021/04/30 02:35:38;;;;;;;11.43;8.27;;;;;;;6.01;72.73;95725.03;5057370;28;20032;-77
2021/04/30 02:38:06;;;;;;;9.52;7.22;;;;;;;5.85;73.34;95733.41;5061941;28;20044;-77
2021/04/30 02:40:33;;;;;;;10.70;8.00;;;;;;;5.73;75.82;95734.53;5058207;28;20441;-77
2021/04/30 02:43:05;;;;;;;9.70;7.53;;;;;;;5.77;75.11;95733.31;5059436;28;20505;-77
2021/04/30 02:45:30;;;;;;;9.13;6.80;;;;;;;5.85;75.04;95728.19;5051057;28;20402;-77
2021/04/30 02:47:58;;;;;;;9.53;5.93;;;;;;;5.70;74.72;95727.03;5060067;28;20051;-77
2021/04/30 02:50:27;;;;;;;9.13;6.27;;;;;;;5.60;75.77;95714.00;5062184;28;20486;-78
2021/04/30 02:52:53;;;;;;;11.23;5.60;;;;;;;5.44;76.27;95714.56;5062528;28;20033;-77
2021/04/30 02:55:21;;;;;;;9.37;6.60;;;;;;;5.41;76.31;95720.06;5062439;28;20024;-77
2021/04/30 02:57:51;;;;;;;10.77;6.80;;;;;;;5.43;76.05;95720.78;5069920;28;20017;-74
2021/04/30 03:00:17;;;;;;;10.83;7.13;;;;;;;5.41;77.53;95725.28;5066525;28;20025;-74
2021/04/30 03:02:43;;;;;;;10.97;7.43;;;;;;;5.48;76.74;95728.16;5059623;28;20150;-76
2021/04/30 03:05:09;;;;;;;10.63;6.83;;;;;;;5.56;77.21;95727.44;5052553;28;20119;-74
2021/04/30 03:07:36;;;;;;;10.63;6.97;;;;;;;5.62;77.72;95742.53;5065264;28;20021;-74
2021/04/30 03:10:03;;;;;;;10.40;7.43;;;;;;;5.63;76.80;95736.34;5067953;28;20036;-73
2021/04/30 03:12:28;;;;;;;11.67;8.63;;;;;;;5.74;76.85;95736.22;5050890;28;20021;-75
2021/04/30 03:14:54;;;;;;;14.27;9.77;;;;;;;5.83;76.52;95737.94;5065194;28;20036;-74
2021/04/30 03:17:20;;;;;;;12.43;9.80;;;;;;;5.86;76.26;95742.88;5061544;28;20052;-75
2021/04/30 03:19:46;;;;;;;12.50;9.07;;;;;;;5.73;74.74;95729.31;5043777;28;20768;-74
2021/04/30 03:22:11;;;;;;;11.60;8.67;;;;;;;5.82;73.45;95723.25;5041262;28;20063;-74
2021/04/30 03:24:37;;;;;;;11.90;8.63;;;;;;;5.86;72.99;95723.78;5058193;28;20029;-75
2021/04/30 03:27:04;;;;;;;11.93;9.27;;;;;;;5.67;72.94;95722.09;5067420;28;20020;-77
2021/04/30 03:29:30;;;;;;;10.73;7.93;;;;;;;5.52;75.35;95715.66;5054344;28;20416;-75
2021/04/30 03:31:56;;;;;;;12.47;8.67;;;;;;;5.63;74.08;95718.09;5057054;28;20115;-75
2021/04/30 03:34:22;;;;;;;12.27;9.43;;;;;;;5.82;72.70;95723.25;5053196;28;20032;-74
2021/04/30 03:36:47;;;;;;;14.40;10.57;;;;;;;5.85;72.86;95716.94;5049434;28;20120;-75
2021/04/30 03:39:13;;;;;;;14.53;10.70;;;;;;;5.91;72.19;95716.38;5058621;28;20721;-75
2021/04/30 03:41:39;;;;;;;12.70;9.23;;;;;;;5.94;73.25;95718.72;5043645;28;20024;-75
2021/04/30 03:44:05;;;;;;;15.80;12.00;;;;;;;5.84;75.59;95725.75;5048223;28;20036;-75
2021/04/30 03:46:31;;;;;;;17.23;12.00;;;;;;;5.77;75.76;95709.84;5052222;28;20082;-76
2021/04/30 03:48:56;;;;;;;12.23;8.83;;;;;;;5.55;77.73;95718.81;5048291;28;20033;-75
2021/04/30 03:51:22;;;;;;;13.07;9.20;;;;;;;5.60;78.12;95720.97;5063838;28;20029;-75
2021/04/30 03:53:48;;;;;;;14.20;10.67;;;;;;;5.63;78.43;95723.31;5060121;28;20436;-75
2021/04/30 03:56:14;;;;;;;13.77;10.53;;;;;;;5.62;77.89;95732.09;5054956;28;20036;-75
2021/04/30 03:58:39;;;;;;;12.50;9.37;;;;;;;5.67;77.70;95738.56;5069996;28;20040;-75
2021/04/30 04:01:06;;;;;;;18.17;13.80;;;;;;;5.67;77.32;95742.97;5045205;28;20027;-76
2021/04/30 04:03:34;;;;;;;20.90;13.67;;;;;;;5.67;77.51;95738.56;5058282;28;20601;-76
2021/04/30 04:06:01;;;;;;;14.43;9.40;;;;;;;5.61;77.63;95740.91;5055705;28;20039;-75
2021/04/30 04:08:28;;;;;;;12.47;8.60;;;;;;;5.44;77.22;95732.84;5053334;28;20081;-76
2021/04/30 04:10:56;;;;;;;12.23;9.10;;;;;;;5.57;77.03;95736.94;5062693;28;20028;-75
2021/04/30 04:13:24;;;;;;;11.80;8.47;;;;;;;5.41;77.71;95737.50;5056360;28;20029;-75
2021/04/30 04:15:50;;;;;;;11.33;7.70;;;;;;;5.49;77.45;95735.00;5047765;28;20031;-75
2021/04/30 04:18:18;;;;;;;10.57;7.73;;;;;;;5.61;77.05;95727.88;5055737;28;20025;-75
2021/04/30 04:20:44;;;;;;;13.93;9.33;;;;;;;5.49;76.73;95728.97;5064396;28;20124;-76
2021/04/30 04:23:11;;;;;;;11.43;8.67;;;;;;;5.42;77.90;95729.53;5061121;28;20114;-76
2021/04/30 04:25:38;;;;;;;13.03;8.10;;;;;;;5.42;78.82;95729.53;5060758;28;20021;-76
2021/04/30 04:28:05;;;;;;;12.43;8.23;;;;;;;5.55;77.81;95715.38;5065628;28;20740;-75
2021/04/30 04:30:31;;;;;;;11.63;8.70;;;;;;;5.52;77.82;95728.69;5047429;28;20474;-75
2021/04/30 04:32:57;;;;;;;13.07;9.13;;;;;;;5.62;76.96;95724.28;5059265;28;20048;-75
2021/04/30 04:35:23;;;;;;;13.60;10.30;;;;;;;5.61;77.19;95720.03;5048962;28;20037;-77
2021/04/30 04:37:48;;;;;;;20.00;15.60;;;;;;;5.43;75.94;95727.75;5054094;28;20483;-75
2021/04/30 04:40:18;;;;;;;21.93;15.80;;;;;;;5.44;76.24;95732.84;5068100;28;20031;-76
2021/04/30 04:42:45;;;;;;;17.13;11.23;;;;;;;5.34;77.66;95729.41;5060100;28;20085;-76
2021/04/30 04:45:13;;;;;;;11.57;8.77;;;;;;;5.32;77.95;95726.13;5035141;28;20028;-76
2021/04/30 04:47:39;;;;;;;11.67;9.30;;;;;;;5.36;78.37;95732.69;5060522;28;20028;-76
2021/04/30 04:50:08;;;;;;;15.37;9.80;;;;;;;5.48;78.82;95751.63;5068404;28;20021;-75
2021/04/30 04:52:34;;;;;;;13.77;9.70;;;;;;;5.62;79.27;95760.78;5069438;28;20070;-75
2021/04/30 04:55:00;;;;;;;14.70;9.70;;;;;;;5.59;78.88;95764.50;5063480;28;20512;-75
2021/04/30 04:57:26;;;;;;;15.57;10.27;;;;;;;5.64;77.79;95769.31;5062582;28;20086;-75
2021/04/30 04:59:51;;;;;;;19.10;14.37;;;;;;;5.69;77.85;95761.88;5052323;28;20111;-75
2021/04/30 05:02:17;;;;;;;26.57;18.83;;;;;;;5.79;77.37;95765.28;5055023;28;20037;-75
2021/04/30 05:04:43;;;;;;;16.30;12.47;;;;;;;5.86;76.15;95765.53;5039477;28;20052;-74
2021/04/30 05:07:09;;;;;;;14.70;10.37;;;;;;;5.81;75.85;95752.94;5053575;28;20107;-75
2021/04/30 05:09:36;;;;;;;13.50;10.63;;;;;;;5.81;74.29;95758.16;5048827;28;20032;-75
2021/04/30 05:12:02;;;;;;;14.43;10.60;;;;;;;5.84;75.26;95759.66;5050254;28;20053;-75
2021/04/30 05:14:27;;;;;;;14.40;10.83;;;;;;;5.95;75.61;95769.13;5056767;28;20028;-75
2021/04/30 05:16:53;;;;;;;15.70;10.93;;;;;;;5.80;77.61;95761.75;5059344;28;20150;-75
2021/04/30 05:19:19;;;;;;;17.83;12.10;;;;;;;5.76;77.95;95757.75;5064797;28;20478;-75
2021/04/30 05:21:46;;;;;;;21.37;13.93;;;;;;;5.88;79.58;95768.84;5062652;28;20033;-76
2021/04/30 05:24:13;;;;;;;14.87;10.97;;;;;;;5.56;77.43;95762.16;5049334;28;20021;-75
2021/04/30 05:26:40;;;;;;;12.80;9.20;;;;;;;5.51;77.84;95761.78;5067470;28;20086;-76
2021/04/30 05:29:06;;;;;;;13.73;10.67;;;;;;;5.59;76.88;95758.47;5059039;28;20064;-76
2021/04/30 05:31:38;;;;;;;17.03;12.10;;;;;;;5.64;76.69;95761.50;5069763;28;20025;-76
2021/04/30 05:34:05;;;;;;;15.07;11.03;;;;;;;5.62;75.54;95773.84;5050905;28;20037;-76
2021/04/30 05:36:31;;;;;;;14.90;11.00;;;;;;;5.65;76.59;95774.38;5050601;28;20033;-76
2021/04/30 05:39:05;;;;;;;14.40;9.97;;;;;;;5.81;76.45;95773.81;5060519;28;20056;-77
2021/04/30 05:41:32;;;;;;;;;;;;;;;6.02;76.21;95772.81;5058926;28;20094;-76
2021/04/30 05:43:58;;;;;;;16.00;11.23;;;;;;;6.09;75.73;95776.50;5056060;28;19919;-76
2021/04/30 05:46:24;;;;;;;16.87;11.43;;;;;;;6.27;73.95;95781.78;5050901;28;20104;-76
2021/04/30 05:48:51;;;;;;;14.17;10.40;;;;;;;6.34;73.18;95773.25;5063857;28;20021;-76
2021/04/30 05:51:16;;;;;;;20.63;15.47;;;;;;;6.25;73.61;95778.50;5062299;28;20021;-77
2021/04/30 05:53:42;;;;;;;21.60;16.53;;;;;;;6.19;74.08;95773.84;5054069;28;20035;-76
2021/04/30 05:56:08;;;;;;;21.33;13.90;;;;;;;6.26;73.78;95770.53;5065462;28;20033;-76
2021/04/30 05:58:33;;;;;;;15.10;11.67;;;;;;;6.32;71.56;95774.34;5057633;28;20524;-76
2021/04/30 06:00:59;;;;;;;14.63;11.50;;;;;;;6.20;73.05;95759.84;5046635;28;20071;-76
2021/04/30 06:03:25;;;;;;;15.10;11.07;;;;;;;6.17;73.31;95760.13;5056352;28;20029;-75
2021/04/30 06:05:50;;;;;;;17.60;12.13;;;;;;;6.20;71.51;95760.66;5054640;28;20037;-76
2021/04/30 06:08:16;;;;;;;14.10;11.47;;;;;;;6.05;72.06;95764.72;5048762;28;20099;-75
2021/04/30 06:10:44;;;;;;;21.37;12.47;;;;;;;6.22;72.20;95766.56;5031381;28;20575;-76
2021/04/30 06:13:09;;;;;;;15.73;11.80;;;;;;;6.19;73.19;95763.41;5046446;28;20439;-76
2021/04/30 06:15:36;;;;;;;14.60;11.00;;;;;;;6.24;72.39;95764.63;5067662;28;20024;-76
2021/04/30 06:18:03;;;;;;;20.10;13.53;;;;;;;6.24;72.36;95754.19;5060269;28;20098;-76
2021/04/30 06:20:28;;;;;;;19.70;12.30;;;;;;;6.08;73.16;95753.97;5058787;28;20035;-76
2021/04/30 06:22:54;;;;;;;16.63;11.83;;;;;;;6.12;73.85;95763.16;5049544;28;20360;-76
2021/04/30 06:25:20;;;;;;;13.20;11.00;;;;;;;6.18;73.00;95767.81;5064369;28;20028;-76
2021/04/30 06:27:46;;;;;;;15.30;11.93;;;;;;;6.10;73.70;95758.09;5049611;28;20402;-76
2021/04/30 06:30:12;;;;;;;15.23;11.70;;;;;;;6.26;73.06;95760.06;5048165;28;20087;-76
2021/04/30 06:32:39;;;;;;;16.83;11.80;;;;;;;6.23;73.45;95756.94;5035507;28;20548;-76
2021/04/30 06:35:08;;;;;;;15.33;10.60;;;;;;;6.29;72.52;95753.75;5067173;28;20029;-77
2021/04/30 06:37:35;;;;;;;15.47;11.00;;;;;;;6.24;73.27;95756.81;5058744;28;20041;-76
2021/04/30 06:40:01;;;;;;;14.47;11.27;;;;;;;6.35;72.52;95756.59;5058187;28;20042;-76
2021/04/30 06:42:29;;;;;;;14.03;11.13;;;;;;;6.61;71.20;95745.47;5058067;28;20567;-76
2021/04/30 06:44:55;;;;;;;18.73;12.77;;;;;;;6.62;72.41;95741.91;5064251;28;20028;-76
2021/04/30 06:47:22;;;;;;;16.17;12.67;;;;;;;6.43;72.59;95742.00;5051245;28;20036;-76
2021/04/30 06:49:47;;;;;;;17.73;13.10;;;;;;;6.69;72.77;95731.69;5049567;28;20108;-77
2021/04/30 06:52:13;;;;;;;17.17;13.37;;;;;;;6.84;71.16;95720.56;5067595;28;20115;-77
2021/04/30 06:54:39;;;;;;;17.33;11.03;;;;;;;6.89;70.84;95722.72;5071595;28;20028;-75
2021/04/30 06:57:05;;;;;;;16.17;13.03;;;;;;;6.85;71.77;95721.41;5058531;28;20032;-76
2021/04/30 06:59:30;;;;;;;18.10;12.40;;;;;;;6.86;71.06;95723.03;5050977;28;20108;-76
2021/04/30 07:01:56;;;;;;;16.13;12.53;;;;;;;6.78;71.25;95718.56;5057216;28;20029;-77
2021/04/30 07:04:22;;;;;;;18.10;13.33;;;;;;;6.69;70.52;95719.44;5039870;28;20025;-76
2021/04/30 07:06:48;;;;;;;17.40;13.37;;;;;;;6.87;70.09;95722.03;5054772;28;20051;-77
2021/04/30 07:09:14;;;;;;;18.53;14.27;;;;;;;6.88;68.58;95712.44;5055772;28;20482;-76
2021/04/30 07:11:40;;;;;;;16.77;12.97;;;;;;;6.63;68.72;95712.19;5069261;28;20102;-76
2021/04/30 07:14:06;;;;;;;17.80;12.87;;;;;;;6.72;68.47;95706.06;5051111;28;20033;-76
2021/04/30 07:16:32;;;;;;;18.37;13.07;;;;;;;6.90;68.51;95710.47;5060006;28;20251;-76
2021/04/30 07:18:59;;;;;;;19.20;12.57;;;;;;;6.57;69.34;95710.16;5049821;28;20032;-78
2021/04/30 07:21:25;;;;;;;17.57;12.97;;;;;;;6.78;68.45;95694.22;5050918;28;20053;-76
2021/04/30 07:23:56;;;;;;;16.27;12.73;;;;;;;7.15;68.20;95691.44;5050436;28;20016;-77
2021/04/30 07:26:22;;;;;;;18.07;12.93;;;;;;;7.15;68.21;95698.47;5059764;28;20040;-76
2021/04/30 07:28:47;;;;;;;16.53;12.43;;;;;;;7.42;67.75;95692.28;5048454;28;20025;-77
2021/04/30 07:31:13;;;;;;;15.53;12.40;;;;;;;7.38;67.92;95702.22;5047364;28;20084;-78
2021/04/30 07:33:46;;;;;;;17.03;13.23;;;;;;;7.40;67.39;95707.31;5047467;28;20036;-77
2021/04/30 07:36:15;;;;;;;16.00;12.60;;;;;;;7.20;68.17;95709.28;5052441;28;20032;-76
2021/04/30 07:38:40;;;;;;;18.27;13.50;;;;;;;7.25;67.51;95710.47;5059486;28;20479;-78
2021/04/30 07:41:07;;;;;;;16.73;13.43;;;;;;;7.17;68.35;95705.16;5044209;28;20034;-77
2021/04/30 07:43:34;;;;;;;17.07;12.67;;;;;;;7.29;68.85;95714.41;5063810;28;20107;-76
2021/04/30 07:46:02;;;;;;;15.67;12.43;;;;;;;7.38;68.76;95722.31;5056868;28;20513;-76
2021/04/30 07:48:28;;;;;;;16.13;12.33;;;;;;;7.36;69.01;95722.47;5049696;28;20029;-77
2021/04/30 07:50:54;;;;;;;14.70;12.23;;;;;;;7.40;68.29;95723.00;5057646;28;20533;-77
2021/04/30 07:53:20;;;;;;;18.10;12.70;;;;;;;7.47;68.10;95717.00;5054759;28;20047;-77
2021/04/30 07:55:46;;;;;;;14.73;11.33;;;;;;;7.66;67.08;95718.59;5057676;28;20059;-77
2021/04/30 07:58:12;;;;;;;17.53;12.13;;;;;;;7.48;67.92;95723.88;5055485;28;20021;-78
2021/04/30 08:00:38;;;;;;;16.57;11.57;;;;;;;7.50;67.06;95721.94;5049147;28;20092;-76
2021/04/30 08:03:04;;;;;;;16.23;12.57;;;;;;;7.53;67.02;95719.00;5064569;28;20116;-77
2021/04/30 08:05:29;;;;;;;17.40;12.80;;;;;;;7.58;66.77;95708.09;5059044;28;20028;-75
2021/04/30 08:08:00;;;;;;;16.40;11.90;;;;;;;7.51;66.45;95705.28;5053837;28;20088;-77
2021/04/30 08:10:26;;;;;;;19.20;14.07;;;;;;;7.60;65.14;95706.13;5047502;28;20032;-77
2021/04/30 08:12:51;;;;;;;18.13;12.63;;;;;;;7.63;64.97;95705.00;5054511;28;20024;-76
2021/04/30 08:15:17;;;;;;;16.90;12.27;;;;;;;7.92;64.17;95700.28;5060862;28;20028;-76
2021/04/30 08:17:43;;;;;;;15.73;12.67;;;;;;;7.73;64.98;95706.53;5037905;28;20383;-77
2021/04/30 08:20:10;;;;;;;15.20;12.30;;;;;;;7.86;64.39;95700.91;5050798;28;20021;-76
2021/04/30 08:22:36;;;;;;;22.93;13.93;;;;;;;7.61;65.86;95702.53;5058731;28;20052;-77
2021/04/30 08:25:04;;;;;;;19.27;13.53;;;;;;;7.64;66.08;95699.59;5084377;28;20125;-77
2021/04/30 08:27:30;;;;;;;16.73;13.03;;;;;;;7.66;65.99;95694.22;5056452;28;20039;-77
2021/04/30 08:29:56;;;;;;;19.33;13.70;;;;;;;7.67;64.69;95691.44;5042230;28;20037;-77
2021/04/30 08:32:22;;;;;;;16.37;13.17;;;;;;;7.76;64.37;95701.00;5070178;28;20025;-76
2021/04/30 08:34:48;;;;;;;19.53;14.50;;;;;;;7.84;64.35;95691.53;5032392;28;20379;-77
2021/04/30 08:37:14;;;;;;;17.00;13.57;;;;;;;8.01;63.70;95688.88;5041105;28;20405;-76
2021/04/30 08:39:41;;;;;;;18.30;14.17;;;;;;;7.92;64.79;95697.66;5052861;28;20494;-77
2021/04/30 08:42:08;;;;;;;18.47;13.97;;;;;;;8.13;63.47;95689.41;5058734;28;20444;-76
2021/04/30 08:44:38;;;;;;;19.10;14.23;;;;;;;8.11;63.61;95687.91;5057868;28;20421;-76
2021/04/30 08:47:06;;;;;;;18.33;13.40;;;;;;;8.19;64.20;95699.25;5061119;28;20039;-77
2021/04/30 08:49:33;;;;;;;17.50;13.40;;;;;;;7.95;64.32;95710.44;5063329;28;20652;-75
2021/04/30 08:51:59;;;;;;;18.23;13.40;;;;;;;7.87;64.75;95712.19;5062619;28;20037;-76
2021/04/30 08:54:25;;;;;;;16.43;14.10;;;;;;;8.13;63.69;95715.59;5057551;28;20668;-77
2021/04/30 08:57:00;;;;;;;15.93;13.37;;;;;;;7.82;64.80;95715.28;5057652;28;20111;-77
2021/04/30 08:59:26;;;;;;;18.30;13.60;;;;;;;7.87;64.42;95720.84;5053751;28;20029;-76
2021/04/30 09:01:53;;;;;;;17.30;13.10;;;;;;;7.77;64.90;95730.59;5071326;28;20027;-77
2021/04/30 09:04:19;;;;;;;16.37;11.93;;;;;;;7.86;63.60;95724.44;5070232;28;20031;-77
2021/04/30 09:06:47;;;;;;;15.47;12.17;;;;;;;7.81;64.08;95724.09;5062952;28;20028;-77
2021/04/30 09:09:15;;;;;;;15.27;11.37;;;;;;;7.92;63.42;95707.31;5045447;28;20028;-77
2021/04/30 09:11:47;;;;;;;18.57;13.17;;;;;;;8.25;63.31;95703.06;5062656;28;20028;-76
2021/04/30 09:14:22;;;;;;;16.57;11.30;;;;;;;8.32;62.20;95695.38;5056198;28;20036;-78
2021/04/30 09:17:01;;;;;;;16.73;12.07;;;;;;;8.47;61.66;95701.66;5061917;28;20050;-76
2021/04/30 09:19:36;;;;;;;14.37;11.37;;;;;;;8.62;60.59;95692.22;5065610;28;20403;-77
2021/04/30 09:22:23;;;;;;;15.03;12.03;;;;;;;9.05;60.47;95674.56;5054709;28;20396;-76
2021/04/30 09:25:25;;;;;;;16.10;12.53;;;;;;;10.15;57.49;95659.94;5045344;28;20498;-76
2021/04/30 09:27:53;;;;;;;15.30;11.67;;;;;;;10.66;55.41;95646.38;5033057;28;20114;-76
2021/04/30 09:30:26;;;;;;;17.27;12.07;;;;;;;11.02;55.25;95644.00;5061997;28;20032;-77
2021/04/30 09:33:09;;;;;;;15.07;12.77;;;;;;;11.80;52.90;95640.19;5072731;28;20033;-76
2021/04/30 09:35:51;;;;;;;16.52;11.85;;;;;;;12.44;51.37;95621.16;5047522;28;20033;-76
2021/04/30 09:38:19;;;;;;;16.90;11.37;;;;;;;13.04;49.31;95621.72;5050327;28;20029;-76
2021/04/30 09:40:47;;;;;;;14.80;11.83;;;;;;;13.73;46.51;95630.84;5067632;28;20025;-77
2021/04/30 09:43:14;;;;;;;15.13;12.57;;;;;;;13.38;47.29;95636.91;5031837;28;20060;-77
2021/04/30 09:45:44;;;;;;;14.70;11.83;;;;;;;12.37;49.58;95645.78;5055376;28;20031;-77
2021/04/30 09:48:12;;;;;;;15.43;11.67;;;;;;;12.38;50.12;95635.06;5047410;28;20021;-77
2021/04/30 09:50:44;;;;;;;17.13;11.13;;;;;;;11.34;52.94;95626.31;5058809;28;20028;-77
2021/04/30 09:53:13;;;;;;;14.50;11.97;;;;;;;12.01;50.94;95621.03;5080796;28;20455;-77
2021/04/30 09:55:48;;;;;;;14.20;10.87;;;;;;;12.87;49.85;95625.63;5061786;28;20033;-77
2021/04/30 09:58:26;;;;;;;14.43;11.70;;;;;;;12.65;49.77;95633.53;5069702;28;20036;-77
2021/04/30 10:00:59;;;;;;;14.20;11.13;;;;;;;13.19;48.00;95630.41;5068195;28;20047;-77
2021/04/30 10:03:35;;;;;;;13.90;11.60;;;;;;;13.09;47.38;95644.94;5063220;28;20113;-77
2021/04/30 10:06:02;;;;;;;13.67;11.53;;;;;;;13.08;47.43;95652.03;5060283;28;20022;-78
2021/04/30 10:08:29;;;;;;;14.53;11.60;;;;;;;12.39;49.51;95665.69;5048669;28;20471;-77
2021/04/30 10:10:55;;;;;;;14.80;11.63;;;;;;;11.30;51.69;95669.75;5044378;28;20033;-78
2021/04/30 10:13:21;;;;;;;16.80;12.20;;;;;;;11.87;51.01;95647.38;5066434;28;20032;-77
2021/04/30 10:15:46;;;;;;;17.33;11.47;;;;;;;11.95;51.74;95653.38;5060065;28;20030;-77
2021/04/30 10:18:16;;;;;;;14.20;10.97;;;;;;;11.97;51.43;95646.13;5059729;28;20025;-76
2021/04/30 10:20:45;;;;;;;16.07;13.13;;;;;;;12.07;50.59;95637.09;5067424;28;20067;-77
2021/04/30 10:23:16;;;;;;;16.57;11.83;;;;;;;12.11;50.68;95626.03;5054234;28;20016;-77
2021/04/30 10:25:48;;;;;;;16.73;12.23;;;;;;;11.83;51.43;95625.00;5059280;28;20397;-77
2021/04/30 10:28:24;;;;;;;16.43;13.00;;;;;;;11.74;51.00;95629.56;5040436;28;20539;-77
2021/04/30 10:30:54;;;;;;;14.60;11.57;;;;;;;12.16;50.64;95633.38;5055275;28;20033;-78
2021/04/30 10:33:45;;;;;;;16.90;11.00;;;;;;;13.14;48.57;95621.41;5060465;28;20038;-78
2021/04/30 10:36:21;;;;;;;14.63;11.97;;;;;;;13.09;48.27;95615.91;5064892;28;20041;-76
2021/04/30 10:38:53;;;;;;;13.83;10.87;;;;;;;13.49;47.27;95613.59;5038988;28;20670;-82
2021/04/30 10:41:41;;;;;;;15.70;11.47;;;;;;;13.79;47.45;95607.09;5064139;28;20111;-77
2021/04/30 10:44:14;;;;;;;14.97;11.70;;;;;;;13.51;48.06;95601.81;5069736;28;20485;-77
2021/04/30 10:46:50;;;;;;;17.40;14.30;;;;;;;13.36;46.83;95594.00;5039806;28;20069;-82
2021/04/30 10:49:21;;;;;;;14.97;11.83;;;;;;;12.87;48.49;95589.50;5058936;28;20025;-77
2021/04/30 10:52:05;;;;;;;15.40;12.07;;;;;;;13.03;47.89;95592.91;5061327;28;20093;-77
2021/04/30 10:54:33;;;;;;;15.33;10.83;;;;;;;12.98;48.89;95586.38;5064420;28;20071;-77
2021/04/30 10:57:07;;;;;;;13.73;11.53;;;;;;;13.74;46.53;95588.34;5057499;28;20118;-77
2021/04/30 10:59:36;;;;;;;14.13;11.50;;;;;;;13.81;46.88;95589.19;5050787;28;20502;-78
2021/04/30 11:02:17;;;;;;;15.07;11.17;;;;;;;13.58;46.79;95601.88;5044893;28;20084;-77
2021/04/30 11:05:13;;;;;;;13.93;11.60;;;;;;;12.68;49.62;95604.16;5061376;28;20513;-77
2021/04/30 11:07:51;;;;;;;16.10;11.53;;;;;;;12.56;48.78;95600.38;5060647;28;20033;-77
2021/04/30 11:10:27;;;;;;;12.13;10.20;;;;;;;12.26;50.08;95604.91;5048327;28;20059;-78
2021/04/30 11:13:16;;;;;;;14.30;11.20;;;;;;;12.33;50.71;95616.34;5045036;28;20037;-78
2021/04/30 11:15:45;;;;;;;13.33;10.37;;;;;;;12.27;50.86;95614.44;5020844;28;20029;-78
2021/04/30 11:18:23;;;;;;;15.70;11.03;;;;;;;12.33;50.19;95618.97;5061711;28;20035;-78
2021/04/30 11:21:09;;;;;;;13.90;10.37;;;;;;;12.36;50.34;95629.16;5061425;28;20029;-79
2021/04/30 11:23:42;;;;;;;13.80;10.57;;;;;;;12.35;50.01;95629.34;5053766;28;20113;-77
2021/04/30 11:26:12;;;;;;;15.35;12.10;;;;;;;12.25;50.72;95637.53;5048112;28;20468;-78
2021/04/30 11:28:37;;;;;;;14.03;10.67;;;;;;;11.95;50.66;95637.56;5044313;28;20040;-79
2021/04/30 11:31:24;;;;;;;14.63;10.90;;;;;;;11.75;50.72;95649.63;5066218;28;20040;-77